Time;durP1;ratioP1;P1;durP2;ratioP2;P2;SDS_P1;SDS_P2;PMS_P1;PMS_P2;Temp;Humidity;BMP_temperature;BMP_pressure;BME280_temperature;BME280_humidity;BME280_pressure;Samples;Min_cycle;Max_cycle;Signal;HPM_P1;HPM_P2
2023/07/08 00:01:54;;;;;;;2.85;2.65;;;;;;;;;;5114131;28;20077;-86
2023/07/08 00:04:22;;;;;;;3.15;2.22;;;;;;;;;;5114154;28;20051;-85
2023/07/08 00:06:49;;;;;;;2.05;1.95;;;;;;;;;;5115157;28;20055;-86
2023/07/08 00:09:15;;;;;;;4.60;2.30;;;;;;;;;;5113369;28;20051;-86
2023/07/08 00:11:41;;;;;;;2.95;2.40;;;;;;;;;;5096770;28;20051;-86
2023/07/08 00:14:07;;;;;;;3.05;2.45;;;;;;;;;;5096760;28;20054;-86
2023/07/08 00:16:34;;;;;;;3.65;2.25;;;;;;;;;;5096623;28;20051;-86
2023/07/08 00:19:00;;;;;;;3.03;2.47;;;;;;;;;;5096498;28;20044;-86
2023/07/08 00:21:26;;;;;;;2.45;1.95;;;;;;;;;;5114150;28;20079;-87
2023/07/08 00:23:52;;;;;;;3.60;2.63;;;;;;;;;;5113303;28;20127;-86
2023/07/08 00:26:21;;;;;;;2.97;2.78;;;;;;;;;;5096282;28;20044;-86
2023/07/08 00:28:47;;;;;;;2.78;2.53;;;;;;;;;;5096632;28;20499;-86
2023/07/08 00:31:14;;;;;;;2.40;2.20;;;;;;;;;;5096530;28;20052;-86
2023/07/08 00:33:40;;;;;;;4.35;2.63;;;;;;;;;;5114369;28;20050;-86
2023/07/08 00:36:09;;;;;;;3.80;2.08;;;;;;;;;;5096415;28;20072;-86
2023/07/08 00:38:36;;;;;;;3.28;2.22;;;;;;;;;;5114400;28;20136;-87
2023/07/08 00:41:02;;;;;;;2.75;2.33;;;;;;;;;;5095946;28;20043;-86
2023/07/08 00:43:36;;;;;;;2.47;2.28;;;;;;;;;;5113353;28;20150;-86
2023/07/08 00:46:11;;;;;;;4.18;2.60;;;;;;;;;;5113401;28;20051;-86
2023/07/08 00:48:37;;;;;;;2.28;2.08;;;;;;;;;;5112894;28;20040;-87
2023/07/08 00:51:03;;;;;;;2.72;2.38;;;;;;;;;;5114017;28;20043;-86
2023/07/08 00:53:31;;;;;;;4.20;2.70;;;;;;;;;;5113153;28;20101;-86
2023/07/08 00:56:09;;;;;;;3.28;2.70;;;;;;;;;;5114475;28;20039;-86
2023/07/08 00:58:44;;;;;;;3.20;2.58;;;;;;;;;;5117412;28;20040;-86
2023/07/08 01:01:10;;;;;;;;;;;;;;;;;;5117930;28;20091;-86
2023/07/08 01:03:41;;;;;;;3.13;2.85;;;;;;;;;;5117318;28;19966;-86
2023/07/08 01:06:07;;;;;;;2.90;2.70;;;;;;;;;;5116605;28;20046;-86
2023/07/08 01:08:33;;;;;;;2.70;2.50;;;;;;;;;;5083507;28;20043;-86
2023/07/08 01:11:01;;;;;;;3.13;2.88;;;;;;;;;;5116841;28;20047;-87
2023/07/08 01:13:30;;;;;;;2.90;2.70;;;;;;;;;;5118025;28;20134;-87
2023/07/08 01:15:56;;;;;;;3.47;2.83;;;;;;;;;;5116560;28;20043;-87
2023/07/08 01:18:24;;;;;;;4.97;3.38;;;;;;;;;;5116517;28;20059;-86
2023/07/08 01:20:50;;;;;;;4.68;2.80;;;;;;;;;;5118218;28;20103;-87
2023/07/08 01:23:17;;;;;;;3.15;2.80;;;;;;;;;;5117838;28;20043;-86
2023/07/08 01:25:43;;;;;;;3.50;3.20;;;;;;;;;;5099630;28;20477;-86
2023/07/08 01:28:10;;;;;;;3.40;3.10;;;;;;;;;;5116341;28;20050;-86
2023/07/08 01:30:36;;;;;;;4.45;3.10;;;;;;;;;;5116602;28;20050;-87
2023/07/08 01:33:05;;;;;;;3.55;2.80;;;;;;;;;;5099972;28;20491;-87
2023/07/08 01:35:31;;;;;;;3.55;3.22;;;;;;;;;;5116653;28;20058;-87
2023/07/08 01:37:59;;;;;;;3.60;2.88;;;;;;;;;;5117935;28;20139;-87
2023/07/08 01:40:27;;;;;;;3.42;2.85;;;;;;;;;;5116654;28;20469;-87
2023/07/08 01:42:54;;;;;;;3.80;2.90;;;;;;;;;;5116177;28;20043;-87
2023/07/08 01:45:21;;;;;;;4.18;3.20;;;;;;;;;;5099130;28;20093;-87
2023/07/08 01:48:04;;;;;;;3.50;3.20;;;;;;;;;;5116022;28;20096;-87
2023/07/08 01:50:31;;;;;;;4.10;3.78;;;;;;;;;;5116300;28;20089;-87
2023/07/08 01:52:59;;;;;;;3.05;2.85;;;;;;;;;;5115761;28;20047;-86
2023/07/08 01:55:28;;;;;;;5.03;3.85;;;;;;;;;;5117109;28;20048;-87
2023/07/08 01:57:55;;;;;;;3.63;3.10;;;;;;;;;;5115861;28;20082;-86
2023/07/08 02:00:22;;;;;;;3.03;2.83;;;;;;;;;;5115638;28;20082;-87
2023/07/08 02:02:48;;;;;;;4.95;3.13;;;;;;;;;;5116175;28;20050;-87
2023/07/08 02:05:14;;;;;;;3.33;3.10;;;;;;;;;;5116026;28;20393;-87
2023/07/08 02:07:40;;;;;;;3.55;3.25;;;;;;;;;;5115419;28;20055;-86
2023/07/08 02:10:07;;;;;;;4.38;3.67;;;;;;;;;;5117265;28;20046;-86
2023/07/08 02:12:33;;;;;;;4.15;3.22;;;;;;;;;;5099113;28;20052;-87
2023/07/08 02:15:02;;;;;;;3.72;3.38;;;;;;;;;;5098924;28;20059;-87
2023/07/08 02:17:34;;;;;;;5.57;3.58;;;;;;;;;;5115835;28;20485;-86
2023/07/08 02:20:00;;;;;;;4.05;3.33;;;;;;;;;;5081945;28;20050;-87
2023/07/08 02:22:26;;;;;;;5.10;3.75;;;;;;;;;;5099243;28;20085;-87
2023/07/08 02:24:53;;;;;;;5.00;3.55;;;;;;;;;;5116198;28;20093;-87
2023/07/08 02:27:19;;;;;;;3.47;2.97;;;;;;;;;;5115193;28;20058;-87
2023/07/08 02:29:45;;;;;;;3.92;3.20;;;;;;;;;;5098662;28;20047;-87
2023/07/08 02:32:11;;;;;;;4.20;3.17;;;;;;;;;;5117022;28;20054;-86
2023/07/08 02:34:37;;;;;;;5.25;3.28;;;;;;;;;;5098515;28;20051;-87
2023/07/08 02:37:03;;;;;;;5.20;4.03;;;;;;;;;;5081575;28;20035;-87
2023/07/08 02:39:29;;;;;;;4.53;3.38;;;;;;;;;;5099514;28;20051;-87
2023/07/08 02:41:56;;;;;;;3.42;2.83;;;;;;;;;;5081250;28;20085;-87
2023/07/08 02:44:22;;;;;;;3.53;3.20;;;;;;;;;;5115687;28;20097;-87
2023/07/08 02:46:48;;;;;;;3.70;3.40;;;;;;;;;;5116210;28;20047;-87
2023/07/08 02:49:15;;;;;;;3.83;3.40;;;;;;;;;;5098413;28;20051;-87
2023/07/08 02:51:41;;;;;;;3.33;3.13;;;;;;;;;;5116160;28;20438;-86
2023/07/08 02:54:07;;;;;;;4.13;3.45;;;;;;;;;;5115985;28;20043;-87
2023/07/08 02:56:33;;;;;;;4.40;3.97;;;;;;;;;;5115113;28;20042;-87
2023/07/08 02:58:59;;;;;;;3.95;3.20;;;;;;;;;;5098525;28;20097;-87
2023/07/08 03:01:26;;;;;;;3.90;3.60;;;;;;;;;;5115841;28;20394;-87
2023/07/08 03:03:59;;;;;;;3.97;3.60;;;;;;;;;;5115043;28;20047;-87
2023/07/08 03:06:25;;;;;;;3.42;3.13;;;;;;;;;;5115097;28;20055;-87
2023/07/08 03:08:51;;;;;;;3.97;3.45;;;;;;;;;;5115160;28;20449;-87
2023/07/08 03:11:17;;;;;;;3.97;3.50;;;;;;;;;;5116262;28;20077;-87
2023/07/08 03:13:43;;;;;;;5.47;4.10;;;;;;;;;;5114393;28;20054;-87
2023/07/08 03:16:12;;;;;;;3.53;3.20;;;;;;;;;;5115574;28;20047;-87
2023/07/08 03:18:45;;;;;;;4.00;3.67;;;;;;;;;;5114083;28;20043;-87
2023/07/08 03:21:12;;;;;;;4.90;3.63;;;;;;;;;;5098333;28;20134;-87
2023/07/08 03:23:38;;;;;;;3.70;3.42;;;;;;;;;;5115697;28;20048;-87
2023/07/08 03:26:05;;;;;;;4.47;4.15;;;;;;;;;;5115492;28;20441;-87
2023/07/08 03:28:31;;;;;;;6.63;4.05;;;;;;;;;;5114668;28;20048;-87
2023/07/08 03:30:57;;;;;;;3.60;3.40;;;;;;;;;;5114762;28;20054;-88
2023/07/08 03:33:23;;;;;;;3.53;3.22;;;;;;;;;;5115584;28;20044;-88
2023/07/08 03:35:50;;;;;;;5.28;4.55;;;;;;;;;;5097761;28;20039;-87
2023/07/08 03:38:16;;;;;;;4.25;3.65;;;;;;;;;;5114111;28;20039;-88
2023/07/08 03:40:44;;;;;;;4.43;3.22;;;;;;;;;;5114140;28;20065;-87
2023/07/08 03:43:10;;;;;;;4.18;3.78;;;;;;;;;;5114510;28;20142;-88
2023/07/08 03:45:36;;;;;;;7.60;4.20;;;;;;;;;;5080962;28;20039;-88
2023/07/08 03:48:02;;;;;;;4.22;3.83;;;;;;;;;;5097068;28;20107;-88
2023/07/08 03:50:29;;;;;;;4.32;3.92;;;;;;;;;;5114349;28;20488;-88
2023/07/08 03:52:55;;;;;;;4.75;3.30;;;;;;;;;;5097662;28;20043;-88
2023/07/08 03:55:21;;;;;;;4.00;3.70;;;;;;;;;;5096970;28;20051;-88
2023/07/08 03:57:47;;;;;;;4.90;3.85;;;;;;;;;;5113793;28;20040;-88
2023/07/08 04:00:15;;;;;;;3.90;3.58;;;;;;;;;;5113598;28;20043;-88
2023/07/08 04:02:42;;;;;;;4.55;3.88;;;;;;;;;;5096431;28;20624;-88
2023/07/08 04:05:13;;;;;;;5.40;3.90;;;;;;;;;;5114581;28;20483;-88
2023/07/08 04:07:39;;;;;;;3.80;3.50;;;;;;;;;;5114429;28;20082;-88
2023/07/08 04:10:06;;;;;;;4.25;3.80;;;;;;;;;;5115487;28;20513;-88
2023/07/08 04:12:32;;;;;;;4.40;4.10;;;;;;;;;;5114980;28;20051;-88
2023/07/08 04:14:58;;;;;;;5.28;4.00;;;;;;;;;;5114123;28;20048;-88
2023/07/08 04:17:24;;;;;;;4.15;3.80;;;;;;;;;;5096390;28;20065;-88
2023/07/08 04:19:50;;;;;;;3.97;3.75;;;;;;;;;;5113255;28;20039;-88
2023/07/08 04:22:17;;;;;;;3.88;3.45;;;;;;;;;;5113422;28;20070;-87
2023/07/08 04:24:44;;;;;;;4.03;3.65;;;;;;;;;;5096926;28;20537;-88
2023/07/08 04:27:14;;;;;;;4.28;3.53;;;;;;;;;;5114431;28;20124;-88
2023/07/08 04:29:40;;;;;;;4.03;3.72;;;;;;;;;;5113425;28;20050;-87
2023/07/08 04:32:06;;;;;;;4.82;4.03;;;;;;;;;;5083575;28;20047;-88
2023/07/08 04:34:32;;;;;;;3.97;3.33;;;;;;;;;;5117946;28;20155;-88
2023/07/08 04:36:58;;;;;;;4.18;3.97;;;;;;;;;;5100894;28;20101;-88
2023/07/08 04:39:27;;;;;;;4.07;3.83;;;;;;;;;;5118855;28;20366;-88
2023/07/08 04:41:54;;;;;;;9.80;3.38;;;;;;;;;;5101399;28;20396;-87
2023/07/08 04:44:20;;;;;;;3.20;2.90;;;;;;;;;;5117974;28;20048;-87
2023/07/08 04:46:48;;;;;;;4.38;3.28;;;;;;;;;;5083944;28;20046;-87
2023/07/08 04:49:14;;;;;;;3.67;3.33;;;;;;;;;;5118009;28;20079;-87
2023/07/08 04:51:41;;;;;;;3.15;2.95;;;;;;;;;;5117801;28;20164;-87
2023/07/08 04:54:07;;;;;;;3.65;3.35;;;;;;;;;;5117684;28;20078;-87
2023/07/08 04:56:44;;;;;;;4.72;3.50;;;;;;;;;;5117636;28;20055;-87
2023/07/08 04:59:15;;;;;;;4.90;3.92;;;;;;;;;;5100314;28;20369;-87
2023/07/08 05:01:41;;;;;;;3.55;3.10;;;;;;;;;;5118592;28;20067;-86
2023/07/08 05:04:09;;;;;;;3.03;2.83;;;;;;;;;;5117216;28;20401;-86
2023/07/08 05:06:35;;;;;;;3.90;2.95;;;;;;;;;;5117557;28;20039;-86
2023/07/08 05:09:02;;;;;;;4.15;3.40;;;;;;;;;;5117983;28;20065;-86
2023/07/08 05:11:28;;;;;;;3.78;3.58;;;;;;;;;;5099356;28;20557;-86
2023/07/08 05:13:54;;;;;;;3.95;3.55;;;;;;;;;;5099608;28;20392;-86
2023/07/08 05:16:21;;;;;;;3.88;3.58;;;;;;;;;;5117405;28;20079;-86
2023/07/08 05:18:47;;;;;;;3.50;3.20;;;;;;;;;;5116049;28;20039;-86
2023/07/08 05:21:13;;;;;;;3.33;3.13;;;;;;;;;;5099356;28;20053;-86
2023/07/08 05:23:39;;;;;;;4.43;4.00;;;;;;;;;;5099382;28;20086;-86
2023/07/08 05:26:07;;;;;;;4.30;3.42;;;;;;;;;;5116341;28;20079;-86
2023/07/08 05:28:33;;;;;;;3.63;3.42;;;;;;;;;;5116624;28;20396;-86
2023/07/08 05:31:00;;;;;;;4.32;3.60;;;;;;;;;;5099608;28;20409;-86
2023/07/08 05:33:27;;;;;;;4.38;3.25;;;;;;;;;;5115745;28;20050;-86
2023/07/08 05:35:53;;;;;;;4.70;3.88;;;;;;;;;;5116030;28;20054;-86
2023/07/08 05:38:19;;;;;;;3.45;3.20;;;;;;;;;;5099585;28;20043;-87
2023/07/08 05:40:49;;;;;;;3.03;2.92;;;;;;;;;;5116297;28;20040;-86
2023/07/08 05:43:16;;;;;;;3.35;3.08;;;;;;;;;;5115030;28;20035;-86
2023/07/08 05:45:42;;;;;;;3.38;2.88;;;;;;;;;;5116122;28;20048;-86
2023/07/08 05:48:08;;;;;;;2.70;2.50;;;;;;;;;;5098688;28;20062;-86
2023/07/08 05:50:35;;;;;;;3.10;2.85;;;;;;;;;;5115215;28;20047;-86
2023/07/08 05:53:01;;;;;;;3.50;2.83;;;;;;;;;;5098960;28;20100;-85
2023/07/08 05:55:27;;;;;;;3.92;2.72;;;;;;;;;;5115642;28;20473;-86
2023/07/08 05:57:53;;;;;;;3.97;2.85;;;;;;;;;;5082257;28;20079;-86
2023/07/08 06:00:19;;;;;;;2.65;2.45;;;;;;;;;;5081954;28;20094;-86
2023/07/08 06:02:45;;;;;;;2.92;2.72;;;;;;;;;;5115300;28;20086;-86
2023/07/08 06:05:11;;;;;;;3.35;2.75;;;;;;;;;;5098875;28;20055;-86
2023/07/08 06:07:37;;;;;;;3.60;2.25;;;;;;;;;;5098350;28;20473;-87
2023/07/08 06:10:04;;;;;;;3.35;2.17;;;;;;;;;;5116106;28;20082;-86
2023/07/08 06:12:30;;;;;;;2.97;2.53;;;;;;;;;;5115254;28;20396;-87
2023/07/08 06:14:57;;;;;;;2.33;1.98;;;;;;;;;;5115862;28;20048;-87
2023/07/08 06:17:23;;;;;;;2.83;2.63;;;;;;;;;;5115670;28;20035;-87
2023/07/08 06:19:49;;;;;;;3.25;1.98;;;;;;;;;;5115281;28;20130;-86
2023/07/08 06:22:15;;;;;;;3.10;2.80;;;;;;;;;;5098710;28;20062;-86
2023/07/08 06:24:41;;;;;;;2.55;1.98;;;;;;;;;;5116307;28;20054;-86
2023/07/08 06:27:07;;;;;;;2.72;2.50;;;;;;;;;;5098393;28;20044;-86
2023/07/08 06:29:34;;;;;;;2.85;2.05;;;;;;;;;;5081623;28;20415;-86
2023/07/08 06:32:00;;;;;;;3.38;2.00;;;;;;;;;;5098379;28;20142;-86
2023/07/08 06:34:26;;;;;;;2.55;1.95;;;;;;;;;;5115259;28;20058;-86
2023/07/08 06:36:52;;;;;;;2.45;2.25;;;;;;;;;;5115072;28;20096;-86
2023/07/08 06:39:19;;;;;;;2.17;1.98;;;;;;;;;;5098008;28;20486;-86
2023/07/08 06:41:45;;;;;;;3.10;1.55;;;;;;;;;;5114455;28;20401;-87
2023/07/08 06:44:11;;;;;;;2.35;2.10;;;;;;;;;;5080940;28;20052;-86
2023/07/08 06:46:37;;;;;;;2.10;2.00;;;;;;;;;;5115298;28;20542;-85
2023/07/08 06:49:03;;;;;;;2.63;1.92;;;;;;;;;;5115193;28;20093;-86
2023/07/08 06:51:30;;;;;;;4.13;1.98;;;;;;;;;;5097611;28;20043;-86
2023/07/08 06:53:56;;;;;;;2.72;1.77;;;;;;;;;;5114678;28;20084;-86
2023/07/08 06:56:22;;;;;;;1.77;1.30;;;;;;;;;;5115071;28;20059;-86
2023/07/08 06:58:48;;;;;;;3.05;1.77;;;;;;;;;;5115823;28;20374;-86
2023/07/08 07:01:14;;;;;;;3.45;1.83;;;;;;;;;;5114340;28;20051;-86
2023/07/08 07:03:41;;;;;;;3.15;1.90;;;;;;;;;;5114558;28;20404;-86
2023/07/08 07:06:07;;;;;;;2.65;1.33;;;;;;;;;;5097505;28;20069;-86
2023/07/08 07:08:34;;;;;;;2.53;1.52;;;;;;;;;;5114311;28;20079;-86
2023/07/08 07:11:00;;;;;;;4.53;1.83;;;;;;;;;;5097645;28;20051;-86
2023/07/08 07:13:26;;;;;;;4.70;1.58;;;;;;;;;;5114307;28;20043;-86
2023/07/08 07:15:52;;;;;;;2.05;1.33;;;;;;;;;;5115455;28;20043;-86
2023/07/08 07:18:18;;;;;;;2.33;1.60;;;;;;;;;;5098325;28;20389;-86
2023/07/08 07:20:53;;;;;;;4.07;1.50;;;;;;;;;;5114064;28;20054;-87
2023/07/08 07:23:19;;;;;;;;;;;;;;;;;;5114742;28;20043;-87
2023/07/08 07:25:47;;;;;;;1.67;1.30;;;;;;;;;;5114188;28;19967;-87
2023/07/08 07:28:13;;;;;;;3.38;1.10;;;;;;;;;;5113515;28;20075;-87
2023/07/08 07:30:39;;;;;;;5.50;1.90;;;;;;;;;;5113582;28;20093;-86
2023/07/08 07:33:06;;;;;;;2.22;1.60;;;;;;;;;;5097180;28;20075;-87
2023/07/08 07:35:32;;;;;;;2.60;1.75;;;;;;;;;;5113757;28;20051;-87
2023/07/08 07:37:58;;;;;;;2.83;1.33;;;;;;;;;;5114024;28;20105;-87
2023/07/08 07:40:24;;;;;;;1.30;1.20;;;;;;;;;;5097333;28;20051;-87
2023/07/08 07:42:50;;;;;;;1.55;1.45;;;;;;;;;;5114641;28;20051;-87
2023/07/08 07:45:16;;;;;;;4.55;1.52;;;;;;;;;;5113962;28;20054;-86
2023/07/08 07:47:42;;;;;;;1.80;1.48;;;;;;;;;;5114510;28;20081;-87
2023/07/08 07:50:09;;;;;;;2.90;1.73;;;;;;;;;;5112967;28;20044;-87
2023/07/08 07:52:36;;;;;;;2.75;1.60;;;;;;;;;;5114446;28;20047;-87
2023/07/08 07:55:03;;;;;;;2.65;1.50;;;;;;;;;;5096616;28;20092;-87
2023/07/08 07:57:29;;;;;;;2.78;1.10;;;;;;;;;;5097108;28;20256;-87
2023/07/08 07:59:55;;;;;;;2.42;1.42;;;;;;;;;;5114223;28;20051;-88
2023/07/08 08:02:21;;;;;;;5.10;1.88;;;;;;;;;;5115004;28;20096;-88
2023/07/08 08:04:48;;;;;;;1.48;1.35;;;;;;;;;;5112873;28;20143;-87
2023/07/08 08:07:14;;;;;;;1.55;1.45;;;;;;;;;;5096156;28;20549;-88
2023/07/08 08:09:40;;;;;;;3.85;1.40;;;;;;;;;;5113699;28;20062;-87
2023/07/08 08:12:08;;;;;;;1.70;1.42;;;;;;;;;;5096754;28;20047;-87
2023/07/08 08:14:34;;;;;;;3.38;1.17;;;;;;;;;;5114633;28;20538;-87
2023/07/08 08:17:00;;;;;;;4.03;1.48;;;;;;;;;;5113910;28;20071;-86
2023/07/08 08:19:26;;;;;;;4.53;1.45;;;;;;;;;;5096692;28;20048;-87
2023/07/08 08:21:52;;;;;;;2.38;1.20;;;;;;;;;;5096480;28;20055;-87
2023/07/08 08:24:18;;;;;;;2.00;1.00;;;;;;;;;;5113234;28;20072;-87
2023/07/08 08:26:45;;;;;;;4.70;1.33;;;;;;;;;;5113247;28;20051;-86
2023/07/08 08:29:11;;;;;;;5.05;1.05;;;;;;;;;;5096229;28;20047;-87
2023/07/08 08:31:37;;;;;;;3.13;1.00;;;;;;;;;;5096303;28;20055;-87
2023/07/08 08:34:03;;;;;;;5.97;1.25;;;;;;;;;;5114158;28;20105;-87
2023/07/08 08:36:29;;;;;;;2.70;1.25;;;;;;;;;;5079829;28;20396;-87
2023/07/08 08:38:55;;;;;;;1.65;1.40;;;;;;;;;;5080014;28;20054;-87
2023/07/08 08:41:23;;;;;;;1.73;0.98;;;;;;;;;;5113256;28;20119;-87
2023/07/08 08:43:50;;;;;;;4.35;1.60;;;;;;;;;;5114390;28;20100;-88
2023/07/08 08:46:16;;;;;;;2.97;1.50;;;;;;;;;;5113434;28;20105;-87
2023/07/08 08:48:47;;;;;;;2.15;1.40;;;;;;;;;;5112691;28;20053;-87
2023/07/08 08:51:14;;;;;;;2.85;1.48;;;;;;;;;;5113962;28;20083;-87
2023/07/08 08:53:40;;;;;;;1.55;0.95;;;;;;;;;;5112987;28;20055;-87
2023/07/08 08:56:10;;;;;;;1.63;1.48;;;;;;;;;;5113705;28;20491;-86
2023/07/08 08:58:36;;;;;;;5.45;1.30;;;;;;;;;;5112488;28;20512;-87
2023/07/08 09:01:08;;;;;;;2.78;1.30;;;;;;;;;;5095521;28;20485;-87
2023/07/08 09:03:34;;;;;;;2.85;1.05;;;;;;;;;;5114631;28;20199;-87
2023/07/08 09:06:01;;;;;;;2.15;1.20;;;;;;;;;;5096071;28;20051;-87
2023/07/08 09:08:34;;;;;;;2.42;1.10;;;;;;;;;;5095697;28;20138;-87
2023/07/08 09:11:15;;;;;;;2.65;1.17;;;;;;;;;;5112730;28;20196;-87
2023/07/08 09:13:42;;;;;;;3.15;1.02;;;;;;;;;;5112578;28;20050;-86
2023/07/08 09:16:14;;;;;;;4.40;1.38;;;;;;;;;;5113628;28;20493;-87
2023/07/08 09:18:50;;;;;;;1.73;1.30;;;;;;;;;;5117601;28;20400;-87
2023/07/08 09:21:20;;;;;;;3.08;1.38;;;;;;;;;;5116903;28;20126;-87
2023/07/08 09:23:48;;;;;;;5.05;1.27;;;;;;;;;;5117654;28;20043;-88
2023/07/08 09:26:18;;;;;;;3.45;1.30;;;;;;;;;;5116276;28;20100;-87
2023/07/08 09:28:44;;;;;;;2.78;1.30;;;;;;;;;;5116170;28;20075;-87
2023/07/08 09:31:21;;;;;;;3.05;1.40;;;;;;;;;;5099048;28;20089;-87
2023/07/08 09:33:47;;;;;;;1.95;1.20;;;;;;;;;;5116264;28;20052;-88
2023/07/08 09:36:23;;;;;;;2.53;1.13;;;;;;;;;;5116230;28;20039;-88
2023/07/08 09:38:49;;;;;;;1.83;1.50;;;;;;;;;;5117331;28;20093;-88
2023/07/08 09:41:29;;;;;;;4.63;1.23;;;;;;;;;;5099650;28;20055;-88
2023/07/08 09:44:03;;;;;;;2.92;0.90;;;;;;;;;;5116604;28;20067;-87
2023/07/08 09:46:29;;;;;;;2.53;1.02;;;;;;;;;;5116180;28;20064;-87
2023/07/08 09:48:56;;;;;;;2.20;1.20;;;;;;;;;;5115536;28;20055;-88
2023/07/08 09:51:23;;;;;;;3.55;1.35;;;;;;;;;;5115861;28;20050;-87
2023/07/08 09:53:49;;;;;;;1.55;1.00;;;;;;;;;;5099053;28;20097;-87
2023/07/08 09:56:15;;;;;;;1.20;1.10;;;;;;;;;;5116230;28;20438;-87
2023/07/08 09:58:44;;;;;;;3.97;1.20;;;;;;;;;;5115960;28;20054;-87
2023/07/08 10:01:12;;;;;;;6.80;1.40;;;;;;;;;;5115385;28;20074;-87
2023/07/08 10:03:38;;;;;;;3.45;1.38;;;;;;;;;;5098578;28;20044;-87
2023/07/08 10:06:06;;;;;;;1.08;0.90;;;;;;;;;;5115761;28;20058;-87
2023/07/08 10:08:42;;;;;;;2.30;1.15;;;;;;;;;;5115690;28;20494;-86
2023/07/08 10:11:11;;;;;;;6.93;1.50;;;;;;;;;;5098554;28;20057;-87
2023/07/08 10:13:40;;;;;;;1.80;1.23;;;;;;;;;;5115504;28;20394;-87
2023/07/08 10:16:12;;;;;;;4.18;1.10;;;;;;;;;;5115235;28;20512;-86
2023/07/08 10:18:38;;;;;;;3.45;1.10;;;;;;;;;;5114823;28;20532;-86
2023/07/08 10:21:20;;;;;;;5.40;1.02;;;;;;;;;;5115328;28;20126;-86
2023/07/08 10:24:19;;;;;;;3.17;1.10;;;;;;;;;;5115557;28;20420;-86
2023/07/08 10:26:46;;;;;;;2.40;0.85;;;;;;;;;;5116277;28;20046;-86
2023/07/08 10:29:19;;;;;;;3.15;1.20;;;;;;;;;;5114622;28;20053;-85
2023/07/08 10:31:51;;;;;;;1.63;1.27;;;;;;;;;;5115031;28;20044;-85
2023/07/08 10:34:20;;;;;;;5.00;1.10;;;;;;;;;;5115651;28;20048;-86
2023/07/08 10:37:10;;;;;;;2.00;0.82;;;;;;;;;;5115915;28;20048;-86
2023/07/08 10:39:48;;;;;;;1.20;1.00;;;;;;;;;;5104124;28;20056;-86
2023/07/08 10:42:16;;;;;;;2.50;1.50;;;;;;;;;;5114771;28;20047;-86
2023/07/08 10:44:54;;;;;;;1.30;0.90;;;;;;;;;;5114925;28;20069;-86
2023/07/08 10:47:24;;;;;;;1.30;1.20;;;;;;;;;;5114448;28;20036;-86
2023/07/08 10:49:53;;;;;;;2.40;1.08;;;;;;;;;;5113853;28;20051;-85
2023/07/08 10:52:42;;;;;;;3.30;1.20;;;;;;;;;;5115224;28;20051;-87
2023/07/08 10:55:08;;;;;;;1.50;1.40;;;;;;;;;;5113998;28;20039;-86
2023/07/08 10:57:51;;;;;;;5.03;1.25;;;;;;;;;;5114314;28;20055;-86
2023/07/08 11:00:35;;;;;;;1.98;1.25;;;;;;;;;;5114493;28;20079;-86
2023/07/08 11:03:09;;;;;;;2.53;0.80;;;;;;;;;;5114045;28;20052;-86
2023/07/08 11:05:35;;;;;;;;;;;;;;;;;;5115962;28;20048;-86
2023/07/08 11:08:05;;;;;;;2.17;1.35;;;;;;;;;;5097262;28;19972;-87
2023/07/08 11:10:41;;;;;;;3.47;1.17;;;;;;;;;;5114242;28;20055;-86
2023/07/08 11:13:15;;;;;;;2.70;1.48;;;;;;;;;;5114359;28;20083;-86
2023/07/08 11:15:45;;;;;;;8.75;1.50;;;;;;;;;;5113988;28;20051;-87
2023/07/08 11:18:34;;;;;;;3.55;1.50;;;;;;;;;;5114088;28;20056;-87
2023/07/08 11:21:12;;;;;;;1.73;1.50;;;;;;;;;;5096042;28;20048;-86
2023/07/08 11:23:41;;;;;;;2.30;1.65;;;;;;;;;;5114264;28;20389;-86
2023/07/08 11:26:16;;;;;;;1.80;1.48;;;;;;;;;;5113811;28;20201;-87
2023/07/08 11:28:43;;;;;;;3.25;1.48;;;;;;;;;;5113786;28;20050;-87
2023/07/08 11:31:10;;;;;;;2.35;2.00;;;;;;;;;;5097341;28;20070;-86
2023/07/08 11:33:37;;;;;;;1.92;1.55;;;;;;;;;;5079964;28;20051;-86
2023/07/08 11:36:04;;;;;;;3.15;1.13;;;;;;;;;;5113684;28;20163;-86
2023/07/08 11:38:33;;;;;;;2.92;1.63;;;;;;;;;;5096548;28;20531;-86
2023/07/08 11:41:12;;;;;;;3.75;2.03;;;;;;;;;;5112466;28;20040;-86
2023/07/08 11:43:49;;;;;;;3.65;2.00;;;;;;;;;;5113150;28;20043;-87
2023/07/08 11:46:20;;;;;;;3.63;2.60;;;;;;;;;;5113514;28;20054;-86
2023/07/08 11:48:50;;;;;;;2.50;2.22;;;;;;;;;;5096129;28;20047;-85
2023/07/08 11:51:37;;;;;;;2.25;1.98;;;;;;;;;;5096503;28;20051;-86
2023/07/08 11:54:22;;;;;;;2.28;2.05;;;;;;;;;;5113130;28;20536;-85
2023/07/08 11:56:59;;;;;;;2.45;2.22;;;;;;;;;;5114125;28;20039;-86
2023/07/08 11:59:26;;;;;;;3.08;1.88;;;;;;;;;;5113309;28;20043;-86
2023/07/08 12:02:11;;;;;;;2.75;2.40;;;;;;;;;;5114777;28;20048;-86
2023/07/08 12:04:57;;;;;;;2.58;2.10;;;;;;;;;;5096350;28;20043;-86
2023/07/08 12:07:33;;;;;;;2.60;2.40;;;;;;;;;;5113738;28;20509;-86
2023/07/08 12:10:05;;;;;;;3.35;2.55;;;;;;;;;;5096094;28;20463;-87
2023/07/08 12:12:33;;;;;;;3.17;2.35;;;;;;;;;;5113425;28;20089;-86
2023/07/08 12:15:05;;;;;;;2.90;2.60;;;;;;;;;;5114144;28;20044;-86
2023/07/08 12:17:31;;;;;;;2.70;2.50;;;;;;;;;;5114344;28;20456;-86
2023/07/08 12:19:59;;;;;;;4.05;2.97;;;;;;;;;;5112874;28;20071;-86
2023/07/08 12:22:25;;;;;;;2.88;2.67;;;;;;;;;;5114639;28;20124;-85
2023/07/08 12:24:51;;;;;;;5.57;2.53;;;;;;;;;;5113140;28;20066;-86
2023/07/08 12:27:17;;;;;;;5.43;2.83;;;;;;;;;;5113940;28;20042;-86
2023/07/08 12:29:43;;;;;;;3.25;2.72;;;;;;;;;;5112891;28;20051;-86
2023/07/08 12:32:13;;;;;;;6.70;3.28;;;;;;;;;;5113565;28;20346;-85
2023/07/08 12:34:39;;;;;;;3.15;2.65;;;;;;;;;;5096127;28;20051;-86
2023/07/08 12:37:09;;;;;;;6.93;2.75;;;;;;;;;;5096014;28;20453;-85
2023/07/08 12:39:36;;;;;;;2.78;2.58;;;;;;;;;;5095817;28;20043;-86
2023/07/08 12:42:04;;;;;;;4.30;2.78;;;;;;;;;;5113911;28;20047;-86
2023/07/08 12:44:36;;;;;;;2.78;2.58;;;;;;;;;;5113780;28;20445;-87
2023/07/08 12:47:02;;;;;;;3.10;2.83;;;;;;;;;;5112561;28;20043;-86
2023/07/08 12:49:29;;;;;;;4.03;3.00;;;;;;;;;;5112655;28;20052;-87
2023/07/08 12:51:56;;;;;;;3.58;3.28;;;;;;;;;;5115023;28;20493;-86
2023/07/08 12:54:22;;;;;;;3.35;3.13;;;;;;;;;;5117836;28;20120;-86
2023/07/08 12:56:48;;;;;;;3.78;2.78;;;;;;;;;;5116602;28;20043;-85
2023/07/08 12:59:17;;;;;;;3.00;2.80;;;;;;;;;;5116846;28;20097;-86
2023/07/08 13:01:46;;;;;;;4.80;3.03;;;;;;;;;;5117505;28;20059;-85
2023/07/08 13:04:13;;;;;;;3.20;3.05;;;;;;;;;;5117689;28;20047;-87
2023/07/08 13:06:40;;;;;;;3.55;3.22;;;;;;;;;;5116467;28;20040;-86
2023/07/08 13:09:26;;;;;;;3.40;3.20;;;;;;;;;;5117464;28;20054;-86
2023/07/08 13:11:55;;;;;;;3.42;3.22;;;;;;;;;;5082454;28;20071;-86
2023/07/08 13:14:22;;;;;;;2.97;2.78;;;;;;;;;;5117342;28;20051;-87
2023/07/08 13:16:49;;;;;;;3.45;3.03;;;;;;;;;;5117437;28;20051;-86
2023/07/08 13:19:15;;;;;;;4.15;3.20;;;;;;;;;;5115808;28;20112;-87
2023/07/08 13:21:41;;;;;;;3.38;3.13;;;;;;;;;;5099621;28;20047;-86
2023/07/08 13:24:13;;;;;;;3.47;3.17;;;;;;;;;;5117202;28;20047;-86
2023/07/08 13:26:40;;;;;;;3.00;2.72;;;;;;;;;;5116203;28;20044;-86
2023/07/08 13:29:15;;;;;;;3.83;3.28;;;;;;;;;;5116178;28;20052;-85
2023/07/08 13:31:42;;;;;;;3.05;2.85;;;;;;;;;;5099261;28;20055;-85
2023/07/08 13:34:10;;;;;;;3.75;3.00;;;;;;;;;;5116224;28;20044;-85
2023/07/08 13:36:39;;;;;;;4.05;3.65;;;;;;;;;;5098741;28;20054;-85
2023/07/08 13:39:07;;;;;;;4.40;4.00;;;;;;;;;;5098747;28;20480;-86
2023/07/08 13:41:33;;;;;;;3.38;3.17;;;;;;;;;;5115852;28;20094;-86
2023/07/08 13:44:05;;;;;;;3.65;3.30;;;;;;;;;;5116267;28;20082;-86
2023/07/08 13:46:35;;;;;;;4.05;3.40;;;;;;;;;;5115929;28;20054;-88
2023/07/08 13:49:10;;;;;;;3.40;3.10;;;;;;;;;;5115791;28;20047;-88
2023/07/08 13:51:37;;;;;;;4.03;3.72;;;;;;;;;;5099202;28;20050;-85
2023/07/08 13:54:26;;;;;;;3.30;3.10;;;;;;;;;;5116344;28;20044;-86
2023/07/08 13:56:53;;;;;;;3.58;3.38;;;;;;;;;;5116162;28;20086;-87
2023/07/08 13:59:22;;;;;;;3.67;3.58;;;;;;;;;;5099723;28;20051;-87
2023/07/08 14:01:51;;;;;;;3.67;3.47;;;;;;;;;;5097944;28;20055;-86
2023/07/08 14:04:19;;;;;;;3.70;3.40;;;;;;;;;;5114258;28;20480;-86
2023/07/08 14:06:45;;;;;;;4.40;3.67;;;;;;;;;;5115891;28;20043;-86
2023/07/08 14:09:14;;;;;;;4.05;3.65;;;;;;;;;;5115384;28;20048;-86
2023/07/08 14:11:41;;;;;;;4.32;4.00;;;;;;;;;;5115483;28;20047;-86
2023/07/08 14:14:08;;;;;;;4.88;3.90;;;;;;;;;;5115484;28;20040;-87
2023/07/08 14:16:35;;;;;;;5.90;3.90;;;;;;;;;;5098397;28;20488;-87
2023/07/08 14:19:03;;;;;;;3.83;3.50;;;;;;;;;;5115017;28;20101;-87
2023/07/08 14:21:39;;;;;;;3.50;3.30;;;;;;;;;;5115200;28;20039;-86
2023/07/08 14:24:23;;;;;;;4.13;3.85;;;;;;;;;;5115918;28;20047;-87
2023/07/08 14:26:49;;;;;;;4.25;3.97;;;;;;;;;;5114808;28;20519;-85
2023/07/08 14:29:15;;;;;;;5.43;3.88;;;;;;;;;;5115110;28;20046;-85
2023/07/08 14:31:42;;;;;;;4.32;4.07;;;;;;;;;;5115482;28;20044;-86
2023/07/08 14:34:10;;;;;;;4.03;3.80;;;;;;;;;;5114851;28;20096;-86
2023/07/08 14:36:37;;;;;;;4.03;3.63;;;;;;;;;;5114706;28;20507;-86
2023/07/08 14:39:09;;;;;;;4.18;3.78;;;;;;;;;;5115825;28;20527;-86
2023/07/08 14:41:35;;;;;;;5.15;3.95;;;;;;;;;;5114996;28;20092;-86
2023/07/08 14:44:01;;;;;;;4.85;4.07;;;;;;;;;;5114515;28;20057;-86
2023/07/08 14:46:27;;;;;;;4.82;3.63;;;;;;;;;;5097775;28;20096;-87
2023/07/08 14:48:54;;;;;;;4.50;4.20;;;;;;;;;;5081900;28;20043;-87
2023/07/08 14:51:20;;;;;;;5.75;3.90;;;;;;;;;;5097437;28;20477;-87